createdAt,value
2019-05-16T00:01:25.758Z,101649.62
2019-05-16T00:03:28.017Z,101648.75
2019-05-16T00:05:29.628Z,101651.62
2019-05-16T00:07:31.045Z,101639.33
2019-05-16T00:09:32.434Z,101638.73
2019-05-16T00:11:34.153Z,101641.67
2019-05-16T00:13:35.580Z,101640.38
2019-05-16T00:15:37.780Z,101638.98
2019-05-16T00:17:39.398Z,101633.57
2019-05-16T00:19:40.825Z,101633.59
2019-05-16T00:21:42.211Z,101628.64
2019-05-16T00:23:43.598Z,101620.95
2019-05-16T00:25:45.037Z,101617.17
2019-05-16T00:27:47.960Z,101607.74
2019-05-16T00:29:49.547Z,101607.23
2019-05-16T00:31:50.927Z,101606.24
2019-05-16T00:33:52.346Z,101605.27
2019-05-16T00:36:02.512Z,101605.16
2019-05-16T00:37:59.027Z,101602.46
2019-05-16T00:40:00.356Z,101596.53
2019-05-16T00:42:01.995Z,101598.03
2019-05-16T00:44:03.380Z,101597.55
2019-05-16T00:46:04.817Z,101595.02
2019-05-16T00:48:06.239Z,101589.85
2019-05-16T00:50:09.031Z,101590.07
2019-05-16T00:52:10.782Z,101588.53
2019-05-16T00:54:12.246Z,101584.56
2019-05-16T00:56:14.179Z,101579.27
2019-05-16T00:58:18.915Z,101578.81
2019-05-16T01:00:31.127Z,101580.00
2019-05-16T01:02:32.557Z,101572.97
2019-05-16T01:04:33.957Z,101575.42
2019-05-16T01:06:35.378Z,101565.50
2019-05-16T01:08:38.513Z,101565.50
2019-05-16T01:10:40.663Z,101553.11
2019-05-16T01:12:42.091Z,101558.69
2019-05-16T01:14:43.509Z,101558.83
2019-05-16T01:16:44.901Z,101551.38
2019-05-16T01:18:48.642Z,101548.23
2019-05-16T01:20:50.320Z,101544.58
2019-05-16T01:22:51.739Z,101548.30
2019-05-16T01:24:53.123Z,101540.94
2019-05-16T01:26:54.546Z,101533.23
2019-05-16T01:28:57.731Z,101534.47
2019-05-16T01:30:59.271Z,101529.41
2019-05-16T01:33:00.795Z,101524.58
2019-05-16T01:35:04.417Z,101519.03
2019-05-16T01:37:08.148Z,101520.83
2019-05-16T01:39:09.145Z,101511.44
2019-05-16T01:41:10.536Z,101512.20
2019-05-16T01:43:11.980Z,101500.97
2019-05-16T01:45:13.662Z,101504.62
2019-05-16T01:47:15.055Z,101499.78
2019-05-16T01:49:18.587Z,101492.89
2019-05-16T01:51:19.765Z,101487.68
2019-05-16T01:53:21.151Z,101484.03
2019-05-16T01:55:22.564Z,101482.59
2019-05-16T01:57:23.944Z,101475.36
2019-05-16T01:59:25.332Z,101469.52
2019-05-16T02:01:28.720Z,101472.08
2019-05-16T02:03:30.067Z,101464.01
2019-05-16T02:05:31.447Z,101455.55
2019-05-16T02:07:32.871Z,101454.02
2019-05-16T02:09:34.253Z,101456.52
2019-05-16T02:11:35.639Z,101456.34
2019-05-16T02:13:39.080Z,101459.91
2019-05-16T02:15:40.353Z,101457.41
2019-05-16T02:17:41.778Z,101454.11
2019-05-16T02:19:43.239Z,101457.86
2019-05-16T02:21:44.624Z,101452.33
2019-05-16T02:23:46.042Z,101447.79
2019-05-16T02:25:48.855Z,101449.66
2019-05-16T02:27:50.720Z,101451.85
2019-05-16T02:29:52.143Z,101447.70
2019-05-16T02:31:53.583Z,101447.13
2019-05-16T02:33:54.974Z,101438.95
2019-05-16T02:35:56.390Z,101439.40
2019-05-16T02:38:00.716Z,101433.64
2019-05-16T02:40:01.898Z,101431.72
2019-05-16T02:42:03.431Z,101433.50
2019-05-16T02:44:05.010Z,101432.86
2019-05-16T02:46:06.441Z,101424.98
2019-05-16T02:48:10.809Z,101428.02
2019-05-16T02:50:12.414Z,101424.25
2019-05-16T02:52:14.145Z,101425.39
2019-05-16T02:54:15.525Z,101424.80
2019-05-16T02:56:16.963Z,101419.98
2019-05-16T02:58:22.832Z,101417.94
2019-05-16T03:00:41.909Z,101419.05
2019-05-16T03:02:41.894Z,101413.78
2019-05-16T03:04:44.408Z,101410.17
2019-05-16T03:06:46.396Z,101406.09
2019-05-16T03:08:50.743Z,101404.59
2019-05-16T03:10:52.904Z,101402.39
2019-05-16T03:12:57.055Z,101398.84
2019-05-16T03:15:01.898Z,101407.45
2019-05-16T03:17:03.184Z,101398.81
2019-05-16T03:19:04.585Z,101399.50
2019-05-16T03:21:11.139Z,101397.89
2019-05-16T03:23:12.697Z,101390.34
2019-05-16T03:25:14.088Z,101391.19
2019-05-16T03:27:15.509Z,101387.55
2019-05-16T03:29:16.921Z,101387.08
2019-05-16T03:31:23.770Z,101382.84
2019-05-16T03:33:30.562Z,101378.79
2019-05-16T03:35:25.485Z,101382.23
2019-05-16T03:37:27.124Z,101375.78
2019-05-16T03:39:31.185Z,101367.12
2019-05-16T03:41:31.832Z,101368.65
2019-05-16T03:43:33.239Z,101370.64
2019-05-16T03:45:34.716Z,101362.69
2019-05-16T03:47:36.090Z,101367.62
2019-05-16T03:49:37.520Z,101361.39
2019-05-16T03:51:41.554Z,101360.89
2019-05-16T03:53:42.225Z,101357.95
2019-05-16T03:55:43.593Z,101352.51
2019-05-16T03:57:45.000Z,101347.73
2019-05-16T03:59:46.413Z,101344.34
2019-05-16T04:01:50.914Z,101344.34
2019-05-16T04:03:51.607Z,101341.30
2019-05-16T04:05:53.288Z,101341.83
2019-05-16T04:08:10.323Z,101340.20
2019-05-16T04:09:57.938Z,101334.19
2019-05-16T04:12:01.855Z,101334.67
2019-05-16T04:14:04.026Z,101335.36
2019-05-16T04:16:05.401Z,101339.93
2019-05-16T04:18:07.481Z,101336.59
2019-05-16T04:20:11.632Z,101337.70
2019-05-16T04:22:13.538Z,101335.78
2019-05-16T04:24:14.902Z,101329.52
2019-05-16T04:26:16.332Z,101330.44
2019-05-16T04:28:21.329Z,101331.67
2019-05-16T04:30:21.918Z,101331.80
2019-05-16T04:32:23.656Z,101328.20
2019-05-16T04:34:25.042Z,101325.09
2019-05-16T04:36:26.464Z,101319.83
2019-05-16T04:38:36.397Z,101323.30
2019-05-16T04:40:31.279Z,101317.73
2019-05-16T04:42:32.759Z,101311.90
2019-05-16T04:44:34.133Z,101309.10
2019-05-16T04:46:35.515Z,101307.72
2019-05-16T04:48:36.889Z,101306.56
2019-05-16T04:50:41.779Z,101307.86
2019-05-16T04:52:42.184Z,101304.86
2019-05-16T04:54:43.673Z,101303.94
2019-05-16T04:56:45.103Z,101303.84
2019-05-16T04:58:46.521Z,101300.73
2019-05-16T05:00:51.261Z,101302.36
2019-05-16T05:02:52.057Z,101299.65
2019-05-16T05:04:53.487Z,101299.39
2019-05-16T05:06:55.970Z,101301.39
2019-05-16T05:09:00.279Z,101296.60
2019-05-16T05:11:01.442Z,101295.16
2019-05-16T05:13:03.040Z,101289.66
2019-05-16T05:15:06.356Z,101292.28
2019-05-16T05:17:10.438Z,101294.17
2019-05-16T05:19:11.255Z,101296.84
2019-05-16T05:21:12.748Z,101296.18
2019-05-16T05:23:14.118Z,101289.47
2019-05-16T05:25:16.086Z,101290.47
2019-05-16T05:27:19.679Z,101294.94
2019-05-16T05:29:20.776Z,101290.69
2019-05-16T05:31:24.757Z,101295.06
2019-05-16T05:33:25.533Z,101292.42
2019-05-16T05:35:26.951Z,101283.70
2019-05-16T05:37:29.850Z,101287.87
2019-05-16T05:39:31.413Z,101289.18
2019-05-16T05:41:32.824Z,101293.63
2019-05-16T05:43:34.292Z,101298.92
2019-05-16T05:45:35.707Z,101292.84
2019-05-16T05:47:37.083Z,101290.76
2019-05-16T05:49:40.572Z,101289.95
2019-05-16T05:51:41.954Z,101282.72
2019-05-16T05:53:43.368Z,101288.27
2019-05-16T05:55:44.738Z,101283.55
2019-05-16T05:57:46.105Z,101287.91
2019-05-16T05:59:49.720Z,101282.53
2019-05-16T06:01:51.767Z,101282.45
2019-05-16T06:03:53.483Z,101282.16
2019-05-16T06:05:54.896Z,101287.36
2019-05-16T06:07:56.272Z,101281.03
2019-05-16T06:10:00.193Z,101277.85
2019-05-16T06:12:02.367Z,101281.68
2019-05-16T06:14:03.764Z,101279.62
2019-05-16T06:16:05.137Z,101277.37
2019-05-16T06:18:06.556Z,101273.88
2019-05-16T06:20:14.088Z,101271.17
2019-05-16T06:22:12.111Z,101271.75
2019-05-16T06:24:16.109Z,101275.09
2019-05-16T06:26:16.787Z,101275.41
2019-05-16T06:28:20.769Z,101268.28
2019-05-16T06:30:21.604Z,101272.53
2019-05-16T06:32:23.038Z,101268.38
2019-05-16T06:34:24.554Z,101262.36
2019-05-16T06:36:25.963Z,101252.48
2019-05-16T06:38:29.687Z,101254.52
2019-05-16T06:40:30.662Z,101255.99
2019-05-16T06:42:32.039Z,101262.61
2019-05-16T06:44:33.416Z,101253.98
2019-05-16T06:46:44.394Z,101256.79
2019-05-16T06:48:39.842Z,101255.22
2019-05-16T06:50:41.815Z,101254.77
2019-05-16T06:52:45.818Z,101258.20
2019-05-16T06:54:46.937Z,101259.25
2019-05-16T06:56:50.874Z,101259.23
2019-05-16T06:58:52.207Z,101255.76
2019-05-16T07:00:53.768Z,101248.98
2019-05-16T07:02:55.145Z,101248.51
2019-05-16T07:04:56.618Z,101243.81
2019-05-16T07:07:02.032Z,101237.41
2019-05-16T07:09:01.315Z,101239.05
2019-05-16T07:11:02.709Z,101239.63
2019-05-16T07:13:04.135Z,101247.08
2019-05-16T07:15:12.478Z,101240.27
2019-05-16T07:17:11.808Z,101236.63
2019-05-16T07:19:13.222Z,101238.25
2019-05-16T07:21:14.741Z,101248.61
2019-05-16T07:23:16.105Z,101246.89
2019-05-16T07:25:18.035Z,101243.16
2019-05-16T07:27:21.806Z,101247.56
2019-05-16T07:29:22.727Z,101255.13
2019-05-16T07:31:24.140Z,101243.50
2019-05-16T07:33:25.501Z,101243.42
2019-05-16T07:35:26.932Z,101242.59
2019-05-16T07:37:28.305Z,101244.19
2019-05-16T07:39:30.668Z,101240.84
2019-05-16T07:41:32.308Z,101235.57
2019-05-16T07:43:33.696Z,101240.94
2019-05-16T07:45:37.713Z,101234.06
2019-05-16T07:47:40.221Z,101229.01
2019-05-16T07:49:41.736Z,101224.21
2019-05-16T07:51:43.121Z,101229.10
2019-05-16T07:53:44.535Z,101231.53
2019-05-16T07:55:45.912Z,101230.32
2019-05-16T07:57:47.290Z,101230.97
2019-05-16T07:59:50.543Z,101225.88
2019-05-16T08:01:54.103Z,101227.86
2019-05-16T08:03:55.268Z,101228.45
2019-05-16T08:05:56.685Z,101226.11
2019-05-16T08:08:00.064Z,101226.02
2019-05-16T08:10:03.972Z,101229.28
2019-05-16T08:12:05.988Z,101219.53
2019-05-16T08:14:10.049Z,101221.66
2019-05-16T08:16:10.931Z,101228.34
2019-05-16T08:18:12.302Z,101225.12
2019-05-16T08:20:13.992Z,101226.81
2019-05-16T08:22:15.391Z,101220.08
2019-05-16T08:24:16.766Z,101211.48
2019-05-16T08:26:21.521Z,101214.95
2019-05-16T08:28:22.091Z,101213.45
2019-05-16T08:30:23.787Z,101218.98
2019-05-16T08:32:25.183Z,101218.33
2019-05-16T08:34:26.548Z,101217.82
2019-05-16T08:36:35.051Z,101210.76
2019-05-16T08:38:36.464Z,101208.48
2019-05-16T08:41:01.299Z,101210.32
2019-05-16T08:44:44.570Z,101210.81
2019-05-16T08:46:53.181Z,101207.19
2019-05-16T08:48:54.019Z,101206.34
2019-05-16T08:50:54.651Z,101207.86
2019-05-16T08:52:55.976Z,101205.66
2019-05-16T08:54:57.452Z,101205.83
2019-05-16T08:57:14.302Z,101205.34
2019-05-16T08:59:03.386Z,101209.62
2019-05-16T09:01:05.697Z,101205.56
2019-05-16T09:03:07.088Z,101211.27
2019-05-16T09:05:13.072Z,101206.43
2019-05-16T09:07:12.917Z,101206.93
2019-05-16T09:09:29.656Z,101199.27
2019-05-16T09:10:21.221Z,101212.34
2019-05-16T09:11:33.954Z,101195.49
2019-05-16T09:13:20.885Z,101195.42
2019-05-16T09:15:22.428Z,101192.93
2019-05-16T09:17:23.939Z,101191.82
2019-05-16T09:19:27.570Z,101195.59
2019-05-16T09:21:28.634Z,101192.06
2019-05-16T09:23:30.052Z,101188.64
2019-05-16T09:25:31.477Z,101187.59
2019-05-16T09:27:32.854Z,101182.12
2019-05-16T09:29:36.679Z,101180.44
2019-05-16T09:31:38.545Z,101178.73
2019-05-16T09:33:40.359Z,101176.77
2019-05-16T09:35:41.876Z,101176.74
2019-05-16T09:37:43.267Z,101168.74
2019-05-16T09:39:44.846Z,101170.39
2019-05-16T09:41:50.561Z,101163.31
2019-05-16T09:43:49.563Z,101167.85
2019-05-16T09:45:50.979Z,101164.52
2019-05-16T09:47:52.554Z,101169.16
2019-05-16T09:49:53.957Z,101170.27
2019-05-16T09:51:56.842Z,101171.05
2019-05-16T09:53:58.342Z,101171.02
2019-05-16T09:55:59.726Z,101167.92
2019-05-16T09:58:01.135Z,101173.38
2019-05-16T10:00:06.837Z,101174.00
2019-05-16T10:02:08.824Z,101176.94
2019-05-16T10:04:10.239Z,101175.89
2019-05-16T10:06:11.620Z,101174.62
2019-05-16T10:08:13.247Z,101173.84
2019-05-16T10:10:16.914Z,101173.64
2019-05-16T10:12:18.779Z,101177.95
2019-05-16T10:14:20.378Z,101177.85
2019-05-16T10:16:21.868Z,101176.48
2019-05-16T10:18:23.242Z,101173.00
2019-05-16T10:20:27.188Z,101169.73
2019-05-16T10:22:27.925Z,101165.38
2019-05-16T10:24:29.344Z,101167.12
2019-05-16T10:26:30.761Z,101163.42
2019-05-16T10:28:32.189Z,101162.98
2019-05-16T10:30:33.556Z,101157.55
2019-05-16T10:32:36.505Z,101156.58
2019-05-16T10:34:38.249Z,101158.19
2019-05-16T10:36:39.618Z,101155.68
2019-05-16T10:38:41.020Z,101157.28
2019-05-16T10:40:42.544Z,101157.44
2019-05-16T10:42:46.991Z,101158.22
2019-05-16T10:44:48.365Z,101148.98
2019-05-16T10:46:50.201Z,101142.54
2019-05-16T10:48:51.620Z,101141.02
2019-05-16T10:50:53.163Z,101145.09
2019-05-16T10:53:20.688Z,101151.76
2019-05-16T10:55:02.056Z,101143.17
2019-05-16T10:57:01.324Z,101138.48
2019-05-16T10:59:37.772Z,101140.03
2019-05-16T11:01:18.913Z,101134.87
2019-05-16T11:03:09.857Z,101135.41
2019-05-16T11:05:29.563Z,101132.38
2019-05-16T11:07:16.860Z,101130.30
2019-05-16T11:09:18.279Z,101128.39
2019-05-16T11:11:20.098Z,101128.61
2019-05-16T11:13:21.753Z,101133.34
2019-05-16T11:15:23.392Z,101135.16
2019-05-16T11:17:27.685Z,101130.64
2019-05-16T11:19:28.458Z,101133.73
2019-05-16T11:21:29.961Z,101132.63
2019-05-16T11:23:31.641Z,101132.64
2019-05-16T11:25:33.073Z,101127.81
2019-05-16T11:27:37.315Z,101131.30
2019-05-16T11:29:37.803Z,101131.00
2019-05-16T11:31:39.200Z,101132.52
2019-05-16T11:33:40.606Z,101129.13
2019-05-16T11:35:42.011Z,101125.27
2019-05-16T11:37:43.385Z,101130.69
2019-05-16T11:39:46.561Z,101129.69
2019-05-16T11:41:48.207Z,101124.90
2019-05-16T11:43:49.637Z,101129.48
2019-05-16T11:45:51.107Z,101127.72
2019-05-16T11:47:52.688Z,101126.30
2019-05-16T11:49:54.112Z,101129.41
2019-05-16T11:51:57.740Z,101129.30
2019-05-16T11:53:59.928Z,101131.08
2019-05-16T11:56:02.228Z,101126.67
2019-05-16T11:58:06.608Z,101122.27
2019-05-16T12:00:09.211Z,101124.31
2019-05-16T12:02:10.717Z,101117.52
2019-05-16T12:04:12.101Z,101120.80
2019-05-16T12:06:13.492Z,101123.27
2019-05-16T12:08:17.204Z,101120.60
2019-05-16T12:10:19.208Z,101123.23
2019-05-16T12:12:21.044Z,101116.28
2019-05-16T12:14:22.790Z,101116.41
2019-05-16T12:16:24.289Z,101120.74
2019-05-16T12:18:26.648Z,101118.45
2019-05-16T12:20:28.289Z,101116.58
2019-05-16T12:22:29.663Z,101117.64
2019-05-16T12:24:37.167Z,101114.75
2019-05-16T12:26:37.095Z,101113.25
2019-05-16T12:28:37.700Z,101112.64
2019-05-16T12:30:40.402Z,101111.87
2019-05-16T12:32:42.203Z,101115.42
2019-05-16T12:34:43.596Z,101111.45
2019-05-16T12:36:47.104Z,101115.39
2019-05-16T12:38:48.330Z,101114.45
2019-05-16T12:40:49.818Z,101113.67
2019-05-16T12:42:54.195Z,101116.86
2019-05-16T12:44:56.311Z,101124.36
2019-05-16T12:46:57.799Z,101120.98
2019-05-16T12:48:59.175Z,101122.95
2019-05-16T12:51:00.626Z,101120.81
2019-05-16T12:53:02.243Z,101124.20
2019-05-16T12:55:07.326Z,101120.34
2019-05-16T12:57:08.772Z,101120.84
2019-05-16T12:59:10.168Z,101122.20
2019-05-16T13:01:11.553Z,101124.63
2019-05-16T13:03:12.966Z,101126.38
2019-05-16T13:05:17.585Z,101126.70
2019-05-16T13:07:18.213Z,101125.28
2019-05-16T13:09:19.660Z,101117.05
2019-05-16T13:11:21.057Z,101114.10
2019-05-16T13:13:22.467Z,101113.78
2019-05-16T13:15:23.882Z,101113.56
2019-05-16T13:17:27.490Z,101116.80
2019-05-16T13:19:32.969Z,101114.55
2019-05-16T13:21:31.926Z,101116.05
2019-05-16T13:23:33.340Z,101112.24
2019-05-16T13:25:36.998Z,101114.77
2019-05-16T13:27:38.090Z,101117.36
2019-05-16T13:29:39.500Z,101114.95
2019-05-16T13:31:40.903Z,101112.55
2019-05-16T13:33:42.278Z,101109.78
2019-05-16T13:35:43.786Z,101108.55
2019-05-16T13:37:47.709Z,101106.53
2019-05-16T13:39:48.578Z,101098.92
2019-05-16T13:41:50.019Z,101096.41
2019-05-16T13:43:51.423Z,101096.52
2019-05-16T13:45:52.847Z,101090.35
2019-05-16T13:47:57.119Z,101092.41
2019-05-16T13:49:57.558Z,101092.54
2019-05-16T13:51:58.996Z,101089.29
2019-05-16T13:54:00.369Z,101083.25
2019-05-16T13:56:01.831Z,101081.28
2019-05-16T13:58:03.403Z,101082.52
2019-05-16T14:00:07.923Z,101082.08
2019-05-16T14:02:09.432Z,101081.64
2019-05-16T14:04:10.807Z,101081.02
2019-05-16T14:06:12.234Z,101078.88
2019-05-16T14:08:13.615Z,101079.70
2019-05-16T14:10:17.856Z,101081.27
2019-05-16T14:12:18.481Z,101076.93
2019-05-16T14:14:33.625Z,101077.51
2019-05-16T14:16:23.116Z,101076.03
2019-05-16T14:18:27.091Z,101072.77
2019-05-16T14:20:27.883Z,101080.61
2019-05-16T14:22:29.273Z,101081.05
2019-05-16T14:24:30.708Z,101082.72
2019-05-16T14:26:32.077Z,101079.79
2019-05-16T14:28:33.445Z,101076.73
2019-05-16T14:30:37.260Z,101075.65
2019-05-16T14:32:42.707Z,101077.67
2019-05-16T14:34:41.904Z,101077.64
2019-05-16T14:36:43.335Z,101073.80
2019-05-16T14:38:46.849Z,101078.66
2019-05-16T14:40:50.310Z,101076.44
2019-05-16T14:42:51.335Z,101078.89
2019-05-16T14:45:06.634Z,101075.16
2019-05-16T14:46:56.078Z,101075.23
2019-05-16T14:48:57.484Z,101074.58
2019-05-16T14:50:58.908Z,101071.06
2019-05-16T14:53:00.326Z,101069.88
2019-05-16T14:55:01.840Z,101065.11
2019-05-16T14:57:03.324Z,101064.02
2019-05-16T14:59:08.012Z,101065.39
2019-05-16T15:01:08.224Z,101065.36
2019-05-16T15:03:09.640Z,101064.41
2019-05-16T15:05:11.427Z,101064.52
2019-05-16T15:07:12.818Z,101066.66
2019-05-16T15:09:17.000Z,101072.81
2019-05-16T15:11:18.096Z,101070.14
2019-05-16T15:13:19.705Z,101068.88
2019-05-16T15:15:24.770Z,101065.47
2019-05-16T15:17:27.275Z,101066.36
2019-05-16T15:19:28.061Z,101070.84
2019-05-16T15:21:29.435Z,101071.33
2019-05-16T15:23:30.871Z,101066.89
2019-05-16T15:25:32.233Z,101069.27
2019-05-16T15:27:33.907Z,101068.23
2019-05-16T15:29:37.582Z,101070.52
2019-05-16T15:31:39.554Z,101071.30
2019-05-16T15:33:41.460Z,101072.47
2019-05-16T15:35:42.861Z,101070.89
2019-05-16T15:37:44.261Z,101071.69
2019-05-16T15:39:47.580Z,101067.43
2019-05-16T15:41:48.931Z,101068.25
2019-05-16T15:43:50.359Z,101072.23
2019-05-16T15:45:53.158Z,101075.59
2019-05-16T15:47:59.675Z,101076.06
2019-05-16T15:49:59.756Z,101073.71
2019-05-16T15:52:01.626Z,101078.41
2019-05-16T15:54:03.110Z,101076.61
2019-05-16T15:56:09.656Z,101076.54
2019-05-16T15:58:10.360Z,101075.17
2019-05-16T16:00:12.111Z,101073.58
2019-05-16T16:02:13.537Z,101070.48
2019-05-16T16:04:17.399Z,101071.42
2019-05-16T16:06:18.204Z,101068.78
2019-05-16T16:08:19.609Z,101069.59
2019-05-16T16:10:27.066Z,101063.72
2019-05-16T16:12:28.567Z,101064.39
2019-05-16T16:14:29.974Z,101070.14
2019-05-16T16:16:31.343Z,101070.82
2019-05-16T16:18:32.729Z,101071.34
2019-05-16T16:20:35.057Z,101070.72
2019-05-16T16:22:37.766Z,101080.70
2019-05-16T16:24:39.502Z,101073.44
2019-05-16T16:26:40.901Z,101074.77
2019-05-16T16:28:42.276Z,101074.64
2019-05-16T16:30:43.644Z,101074.82
2019-05-16T16:32:45.079Z,101077.55
2019-05-16T16:34:48.980Z,101077.58
2019-05-16T16:36:49.880Z,101078.80
2019-05-16T16:38:51.244Z,101082.09
2019-05-16T16:40:52.625Z,101086.44
2019-05-16T16:42:56.659Z,101082.72
2019-05-16T16:44:57.302Z,101086.27
2019-05-16T16:46:58.696Z,101082.69
2019-05-16T16:49:00.144Z,101090.69
2019-05-16T16:51:01.533Z,101085.95
2019-05-16T16:53:03.820Z,101088.14
2019-05-16T16:55:09.106Z,101083.05
2019-05-16T16:57:10.587Z,101084.27
2019-05-16T16:59:12.008Z,101084.10
2019-05-16T17:01:13.392Z,101085.91
2019-05-16T17:03:16.696Z,101086.03
2019-05-16T17:05:18.407Z,101089.97
2019-05-16T17:07:19.874Z,101087.89
2019-05-16T17:09:21.300Z,101088.91
2019-05-16T17:11:22.679Z,101086.13
2019-05-16T17:13:24.088Z,101089.11
2019-05-16T17:15:27.227Z,101091.05
2019-05-16T17:17:28.819Z,101090.81
2019-05-16T17:19:30.212Z,101087.30
2019-05-16T17:21:31.623Z,101084.06
2019-05-16T17:23:33.018Z,101087.47
2019-05-16T17:25:36.578Z,101081.73
2019-05-16T17:27:37.960Z,101084.98
2019-05-16T17:29:39.399Z,101086.17
2019-05-16T17:31:40.818Z,101091.13
2019-05-16T17:33:42.304Z,101089.27
2019-05-16T17:35:43.685Z,101088.35
2019-05-16T17:37:46.877Z,101091.69
2019-05-16T17:39:48.317Z,101089.23
2019-05-16T17:41:54.764Z,101088.49
2019-05-16T17:43:53.026Z,101089.00
2019-05-16T17:45:54.474Z,101091.51
2019-05-16T17:47:57.200Z,101088.24
2019-05-16T17:49:58.992Z,101086.84
2019-05-16T17:52:00.400Z,101089.37
2019-05-16T17:54:01.779Z,101088.15
2019-05-16T17:56:03.674Z,101093.65
2019-05-16T17:58:08.607Z,101096.50
2019-05-16T18:00:13.073Z,101100.66
2019-05-16T18:02:13.279Z,101097.17
2019-05-16T18:04:16.997Z,101095.23
2019-05-16T18:06:17.995Z,101098.45
2019-05-16T18:08:19.364Z,101096.48
2019-05-16T18:10:21.175Z,101107.70
2019-05-16T18:12:22.546Z,101105.47
2019-05-16T18:14:24.054Z,101101.05
2019-05-16T18:16:25.483Z,101102.78
2019-05-16T18:18:27.065Z,101103.95
2019-05-16T18:20:28.583Z,101099.70
2019-05-16T18:22:30.027Z,101099.25
2019-05-16T18:24:31.439Z,101101.37
2019-05-16T18:26:32.798Z,101101.77
2019-05-16T18:28:58.860Z,101100.59
2019-05-16T18:31:00.226Z,101102.16
2019-05-16T18:33:01.611Z,101105.52
2019-05-16T18:35:07.449Z,101102.16
2019-05-16T18:37:09.171Z,101100.88
2019-05-16T18:39:10.553Z,101096.56
2019-05-16T18:41:12.050Z,101099.27
2019-05-16T18:43:13.458Z,101093.08
2019-05-16T18:45:16.544Z,101090.42
2019-05-16T18:47:18.105Z,101096.31
2019-05-16T18:49:19.539Z,101096.16
2019-05-16T18:51:21.705Z,101095.94
2019-05-16T18:53:23.192Z,101102.33
2019-05-16T18:55:26.261Z,101094.00
2019-05-16T18:57:27.973Z,101093.00
2019-05-16T18:59:29.339Z,101089.38
2019-05-16T19:01:30.716Z,101088.37
2019-05-16T19:03:32.145Z,101090.83
2019-05-16T19:05:33.526Z,101095.30
2019-05-16T19:07:36.989Z,101098.83
2019-05-16T19:09:38.204Z,101099.31
2019-05-16T19:11:39.604Z,101100.54
2019-05-16T19:13:40.983Z,101106.40
2019-05-16T19:15:42.403Z,101105.20
2019-05-16T19:17:43.977Z,101106.20
2019-05-16T19:19:46.434Z,101107.28
2019-05-16T19:21:48.044Z,101105.00
2019-05-16T19:23:49.453Z,101111.72
2019-05-16T19:25:50.820Z,101111.57
2019-05-16T19:27:52.229Z,101111.94
2019-05-16T19:29:53.603Z,101109.23
2019-05-16T19:31:56.971Z,101107.75
2019-05-16T19:33:58.284Z,101109.62
2019-05-16T19:35:59.657Z,101117.22
2019-05-16T19:38:01.035Z,101114.20
2019-05-16T19:40:06.445Z,101116.14
2019-05-16T19:42:07.964Z,101112.01
2019-05-16T19:44:09.367Z,101109.58
2019-05-16T19:46:10.808Z,101112.09
2019-05-16T19:48:12.204Z,101106.04
2019-05-16T19:50:14.242Z,101109.59
2019-05-16T19:52:16.383Z,101106.95
2019-05-16T19:54:18.085Z,101101.86
2019-05-16T19:56:19.480Z,101105.92
2019-05-16T19:58:20.897Z,101096.95
2019-05-16T20:00:22.778Z,101104.72
2019-05-16T20:02:24.148Z,101099.19
2019-05-16T20:04:27.391Z,101102.99
2019-05-16T20:06:28.843Z,101095.70
2019-05-16T20:08:30.261Z,101097.11
2019-05-16T20:10:31.653Z,101102.59
2019-05-16T20:12:33.024Z,101100.17
2019-05-16T20:14:36.529Z,101099.03
2019-05-16T20:16:37.979Z,101097.34
2019-05-16T20:18:39.373Z,101101.42
2019-05-16T20:20:40.772Z,101099.05
2019-05-16T20:22:42.155Z,101100.11
2019-05-16T20:24:43.532Z,101097.13
2019-05-16T20:26:46.419Z,101097.80
2019-05-16T20:28:48.047Z,101097.30
2019-05-16T20:30:49.419Z,101094.42
2019-05-16T20:32:50.842Z,101095.30
2019-05-16T20:34:52.228Z,101093.88
2019-05-16T20:36:53.615Z,101097.44
2019-05-16T20:38:55.016Z,101098.09
2019-05-16T20:40:59.620Z,101090.56
2019-05-16T20:42:59.720Z,101093.03
2019-05-16T20:45:01.147Z,101097.44
2019-05-16T20:47:02.609Z,101092.97
2019-05-16T20:49:03.975Z,101093.65
2019-05-16T20:51:07.281Z,101088.90
2019-05-16T20:53:08.680Z,101091.37
2019-05-16T20:55:10.717Z,101090.83
2019-05-16T20:57:12.176Z,101097.70
2019-05-16T20:59:13.567Z,101090.03
2019-05-16T21:01:17.195Z,101091.77
2019-05-16T21:03:18.251Z,101094.84
2019-05-16T21:05:19.729Z,101097.15
2019-05-16T21:07:21.119Z,101101.06
2019-05-16T21:09:22.525Z,101096.35
2019-05-16T21:11:26.317Z,101092.16
2019-05-16T21:13:27.441Z,101093.05
2019-05-16T21:15:28.865Z,101091.58
2019-05-16T21:17:30.229Z,101094.69
2019-05-16T21:19:31.632Z,101093.93
2019-05-16T21:21:33.029Z,101093.95
2019-05-16T21:23:36.462Z,101093.19
2019-05-16T21:25:37.711Z,101091.99
2019-05-16T21:27:39.085Z,101094.71
2019-05-16T21:29:40.483Z,101098.34
2019-05-16T21:31:41.907Z,101099.09
2019-05-16T21:33:43.328Z,101099.68
2019-05-16T21:35:46.853Z,101103.48
2019-05-16T21:37:47.990Z,101100.11
2019-05-16T21:39:49.397Z,101104.13
2019-05-16T21:41:50.763Z,101106.97
2019-05-16T21:43:52.138Z,101103.95
2019-05-16T21:45:53.564Z,101112.50
2019-05-16T21:47:56.763Z,101108.11
2019-05-16T21:49:58.303Z,101111.23
2019-05-16T21:51:59.989Z,101108.61
2019-05-16T21:54:01.402Z,101115.04
2019-05-16T21:56:03.093Z,101117.02
2019-05-16T21:58:04.505Z,101113.29
2019-05-16T22:00:20.721Z,101102.73
2019-05-16T22:02:22.220Z,101100.53
2019-05-16T22:04:23.622Z,101093.34
2019-05-16T22:06:24.998Z,101088.72
2019-05-16T22:08:26.377Z,101089.03
2019-05-16T22:10:27.891Z,101088.75
2019-05-16T22:12:29.325Z,101086.62
2019-05-16T22:14:42.599Z,101086.64
2019-05-16T22:16:46.651Z,101084.53
2019-05-16T22:18:47.694Z,101084.13
2019-05-16T22:20:49.545Z,101077.33
2019-05-16T22:22:51.159Z,101079.97
2019-05-16T22:24:52.526Z,101083.16
2019-05-16T22:26:53.934Z,101078.91
2019-05-16T22:28:57.454Z,101074.48
2019-05-16T22:30:58.697Z,101070.66
2019-05-16T22:33:00.108Z,101068.58
2019-05-16T22:35:02.948Z,101063.66
2019-05-16T22:37:06.439Z,101064.05
2019-05-16T22:39:07.779Z,101063.93
2019-05-16T22:41:10.879Z,101061.63
2019-05-16T22:43:12.666Z,101067.08
2019-05-16T22:45:17.712Z,101068.44
2019-05-16T22:47:19.165Z,101068.67
2019-05-16T22:49:20.544Z,101073.59
2019-05-16T22:51:21.913Z,101070.81
2019-05-16T22:53:23.323Z,101077.12
2019-05-16T22:55:26.413Z,101071.84
2019-05-16T22:57:27.974Z,101073.98
2019-05-16T22:59:29.402Z,101072.86
2019-05-16T23:01:30.871Z,101077.20
2019-05-16T23:03:32.337Z,101079.41
2019-05-16T23:05:33.915Z,101085.61
2019-05-16T23:07:36.733Z,101088.77
2019-05-16T23:09:38.425Z,101087.97
2019-05-16T23:11:40.648Z,101085.66
2019-05-16T23:13:42.063Z,101084.05